Time;durP1;ratioP1;P1;durP2;ratioP2;P2;SDS_P1;SDS_P2;PMS_P1;PMS_P2;Temp;Humidity;BMP_temperature;BMP_pressure;BME280_temperature;BME280_humidity;BME280_pressure;Samples;Min_cycle;Max_cycle;Signal;HPM_P1;HPM_P2
2024/01/18 00:02:12;;;;;;;;;27.00;20.50;;;;;1.78;86.32;98452.34;5080257;27;47084;-62
2024/01/18 00:04:37;;;;;;;;;32.67;20.67;;;;;1.78;85.36;98452.34;5070756;27;71898;-62
2024/01/18 00:07:03;;;;;;;;;33.50;21.00;;;;;1.78;86.97;98460.09;5096949;27;45940;-62
2024/01/18 00:09:28;;;;;;;;;27.75;22.25;;;;;1.78;86.69;98472.97;5094838;27;45365;-62
2024/01/18 00:11:53;;;;;;;;;32.00;21.33;;;;;1.80;86.14;98476.34;5069809;27;65388;-62
2024/01/18 00:14:19;;;;;;;;;32.50;20.75;;;;;1.80;85.94;98490.06;5096610;27;72984;-62
2024/01/18 00:16:44;;;;;;;;;29.50;20.25;;;;;1.79;85.30;98485.81;5074518;27;46034;-62
2024/01/18 00:19:10;;;;;;;;;25.00;16.00;;;;;1.78;84.85;98494.44;5094337;27;70151;-62
2024/01/18 00:21:35;;;;;;;;;36.50;23.00;;;;;1.79;85.69;98503.88;5073994;27;45496;-62
2024/01/18 00:24:00;;;;;;;;;20.00;16.67;;;;;1.81;85.93;98502.09;5066348;28;67795;-62
2024/01/18 00:26:26;;;;;;;;;31.75;19.00;;;;;1.86;85.45;98502.81;5089383;27;51037;-62
2024/01/18 00:28:51;;;;;;;;;25.75;16.75;;;;;1.90;85.50;98507.00;5092974;27;57565;-62
2024/01/18 00:31:16;;;;;;;;;28.25;17.75;;;;;1.95;85.06;98513.75;5095768;27;45528;-61
2024/01/18 00:33:42;;;;;;;;;23.25;13.25;;;;;1.95;84.63;98506.88;5065906;27;45547;-62
2024/01/18 00:36:07;;;;;;;;;30.00;16.75;;;;;1.95;85.00;98499.13;5081481;27;46206;-62
2024/01/18 00:38:32;;;;;;;;;21.00;19.50;;;;;1.96;84.25;98499.97;5080034;27;72354;-62
2024/01/18 00:40:58;;;;;;;;;17.00;14.50;;;;;1.94;83.90;98501.75;5075897;27;45425;-62
2024/01/18 00:43:23;;;;;;;;;23.00;16.00;;;;;1.92;83.92;98499.22;5076216;27;70861;-62
2024/01/18 00:45:48;;;;;;;;;23.00;16.25;;;;;1.89;84.13;98491.56;5072333;27;46956;-63
2024/01/18 00:48:14;;;;;;;;;24.25;12.75;;;;;1.89;84.84;98492.44;5090386;27;45499;-63
2024/01/18 00:50:39;;;;;;;;;17.75;16.50;;;;;1.93;84.42;98492.31;5088726;27;68283;-63
2024/01/18 00:53:04;;;;;;;;;28.00;20.50;;;;;1.94;83.92;98491.44;5085812;27;52179;-63
2024/01/18 00:55:32;;;;;;;;;18.50;17.75;;;;;0.68;85.28;98495.50;5090316;27;46326;-61
2024/01/18 00:57:58;;;;;;;;;11.25;8.75;;;;;1.83;100.00;98494.31;5097889;27;45497;-64
2024/01/18 01:00:23;;;;;;;;;20.75;14.00;;;;;1.85;100.00;98498.53;5096536;27;45301;-63
2024/01/18 01:02:51;;;;;;;;;20.00;16.67;;;;;1.87;100.00;98503.66;5091295;27;72047;-61
2024/01/18 01:05:16;;;;;;;;;25.25;16.50;;;;;1.84;100.00;98501.16;5078336;27;45838;-61
2024/01/18 01:07:41;;;;;;;;;29.33;18.33;;;;;1.84;100.00;98501.16;5093817;27;73214;-62
2024/01/18 01:10:07;;;;;;;;;20.25;15.50;;;;;1.81;100.00;98498.69;5095788;27;57863;-62
2024/01/18 01:12:32;;;;;;;;;23.50;17.00;;;;;1.79;100.00;98495.28;5071549;28;45453;-62
2024/01/18 01:14:58;;;;;;;;;22.67;18.33;;;;;1.75;100.00;98484.19;5087572;27;71228;-62
2024/01/18 01:17:23;;;;;;;;;19.00;16.00;;;;;1.73;100.00;98480.81;5071831;27;73100;-62
2024/01/18 01:19:48;;;;;;;;;17.00;13.67;;;;;1.70;100.00;98473.19;5071595;27;69130;-62
2024/01/18 01:22:13;;;;;;;;;20.50;15.50;;;;;1.65;100.00;98483.63;5069752;27;45506;-62
2024/01/18 01:24:39;;;;;;;;;22.25;15.75;;;;;1.61;100.00;98481.16;5091741;27;74188;-61
2024/01/18 01:27:05;;;;;;;;;22.00;16.00;;;;;1.57;100.00;98488.13;5091832;27;45347;-62
2024/01/18 01:29:31;;;;;;;;;28.25;19.50;;;;;1.56;100.00;98477.84;5079389;27;45736;-61
2024/01/18 01:31:56;;;;;;;;;20.25;16.00;;;;;1.53;100.00;98481.38;5086304;27;45477;-62
2024/01/18 01:34:21;;;;;;;;;17.33;14.33;;;;;1.51;100.00;98478.00;5070456;27;75310;-62
2024/01/18 01:36:47;;;;;;;;;27.33;17.33;;;;;1.48;100.00;98478.91;5075496;27;72124;-62
2024/01/18 01:39:12;;;;;;;;;20.75;15.00;;;;;1.47;100.00;98484.97;5094839;27;53494;-62
2024/01/18 01:41:37;;;;;;;;;18.75;13.00;;;;;1.46;100.00;98488.41;5093737;27;45352;-62
2024/01/18 01:44:03;;;;;;;;;18.00;12.67;;;;;1.46;100.00;98485.84;5079798;27;77534;-62
2024/01/18 01:46:29;;;;;;;;;16.50;10.25;;;;;1.71;100.00;98482.59;5090739;27;45430;-62
2024/01/18 01:48:59;;;;;;;;;13.50;13.00;;;;;1.88;100.00;98477.00;5090356;27;45433;-62
2024/01/18 01:51:25;;;;;;;;;23.25;15.00;;;;;1.59;100.00;98488.09;5094572;27;45540;-62
2024/01/18 01:53:51;;;;;;;;;21.25;13.75;;;;;1.50;100.00;98505.47;5075460;27;45528;-62
2024/01/18 01:56:17;;;;;;;;;23.25;18.00;;;;;1.64;100.00;98509.44;5076089;27;46281;-62
2024/01/18 01:58:42;;;;;;;;;19.50;15.00;;;;;1.98;100.00;98511.09;5087790;27;45291;-62
2024/01/18 02:01:07;;;;;;;;;15.00;10.50;;;;;1.88;100.00;98521.66;5074747;27;45515;-62
2024/01/18 02:03:33;;;;;;;;;28.25;19.50;;;;;1.63;100.00;98518.91;5098601;27;45456;-62
2024/01/18 02:05:58;;;;;;;;;30.50;17.50;;;;;1.93;100.00;98526.72;5072671;28;45798;-62
2024/01/18 02:08:24;;;;;;;;;23.25;17.50;;;;;1.69;100.00;98526.47;5073523;27;71505;-62
2024/01/18 02:10:49;;;;;;;;;23.00;19.75;;;;;1.63;100.00;98518.91;5079985;27;45346;-62
2024/01/18 02:13:15;;;;;;;;;33.75;23.25;;;;;1.64;100.00;98522.31;5084547;27;45548;-63
2024/01/18 02:15:41;;;;;;;;;25.50;22.75;;;;;1.53;100.00;98517.47;5067107;27;45611;-62
2024/01/18 02:18:06;;;;;;;;;26.75;19.25;;;;;1.52;100.00;98516.63;5090808;27;68236;-61
2024/01/18 02:20:32;;;;;;;;;26.25;18.25;;;;;1.44;100.00;98512.56;5069539;27;65455;-62
2024/01/18 02:22:57;;;;;;;;;24.33;18.67;;;;;1.52;100.00;98511.47;5079980;27;68497;-62
2024/01/18 02:25:28;;;;;;;;;27.75;20.75;;;;;1.58;100.00;98509.63;5101931;27;71339;-62
2024/01/18 02:27:55;;;;;;;;;23.75;22.25;;;;;1.39;100.00;98507.50;5083618;27;45586;-61
2024/01/18 02:30:20;;;;;;;;;29.25;19.50;;;;;-145.10;100.00;63789.38;5082983;27;45502;-63
2024/01/18 02:40:53;;;;;;;;;;;;;;;-145.10;100.00;63789.38;2954630;27;231877871;-62
2024/01/18 02:50:56;;;;;;;;;7.50;7.50;;;;;-145.10;100.00;63789.38;2;261089183;261089183;-61
2024/01/18 02:53:26;;;;;;;;;21.50;18.50;;;;;-145.10;100.00;63789.38;576095;27;77249266;-62
2024/01/18 02:57:07;;;;;;;;;;;;;;;-145.10;100.00;63789.38;393663;28;108351321;-62
2024/01/18 03:06:46;;;;;;;;;9.50;7.50;;;;;-145.10;100.00;63789.38;167540;28;254228450;-61
2024/01/18 03:16:00;;;;;;;;;15.00;15.00;;;;;-145.10;100.00;63789.38;2;234098201;234098201;-62
2024/01/18 03:25:59;;;;;;;;;10.00;4.50;;;;;-145.10;100.00;63789.38;2;279106548;279106548;-61
2024/01/18 03:35:13;;;;;;;;;13.50;13.50;;;;;-145.10;100.00;63789.38;2;234094906;234094906;-62
2024/01/18 03:45:12;;;;;;;;;13.00;8.50;;;;;-145.10;100.00;63789.38;2;279102729;279102729;-62
2024/01/18 03:54:27;;;;;;;;;10.00;10.00;;;;;-145.10;100.00;63789.38;2;234072577;234072577;-61
2024/01/18 04:04:26;;;;;;;;;6.50;6.50;;;;;-145.10;100.00;63789.38;2;279085104;279085104;-61
2024/01/18 04:13:40;;;;;;;;;11.50;9.00;;;;;-145.10;100.00;63789.38;2;234070649;234070649;-61
2024/01/18 04:23:39;;;;;;;;;5.50;5.50;;;;;-145.10;100.00;63789.38;2;279092671;279092671;-62
2024/01/18 04:32:54;;;;;;;;;9.00;9.00;;;;;-145.10;100.00;63789.38;2;234082924;234082924;-62
2024/01/18 04:42:53;;;;;;;;;19.50;4.50;;;;;-145.10;100.00;63789.38;2;279081762;279081762;-62
2024/01/18 04:52:07;;;;;;;;;6.00;4.00;;;;;-145.10;100.00;63789.38;2;234070840;234070840;-62
2024/01/18 04:57:11;;;;;;;;;8.00;8.00;;;;;-145.10;100.00;63789.38;2;279082222;279082222;-61
2024/01/18 04:59:36;;;;;;;;;17.00;16.33;;;;;-145.10;100.00;63789.38;1867346;27;91754055;-61
2024/01/18 05:02:02;;;;;;;;;13.00;13.00;;;;;-145.10;100.00;63789.38;5084621;27;45429;-62
2024/01/18 05:04:27;;;;;;;;;14.25;8.50;;;;;-145.10;100.00;63789.38;5081331;27;45718;-62
2024/01/18 05:06:52;;;;;;;;;11.33;10.33;;;;;-145.10;100.00;63789.38;5091836;27;45549;-62
2024/01/18 05:09:18;;;;;;;;;21.75;14.50;;;;;-145.10;100.00;63789.38;5089395;27;45419;-62
2024/01/18 05:11:43;;;;;;;;;16.25;12.25;;;;;-145.10;100.00;63789.38;5086889;27;45532;-62
2024/01/18 05:14:09;;;;;;;;;18.00;14.25;;;;;-145.10;100.00;63789.38;5096897;27;45416;-62
2024/01/18 05:16:39;;;;;;;;;23.00;21.75;;;;;-145.10;100.00;63789.38;5081290;27;47516;-62
2024/01/18 05:19:05;;;;;;;;;27.00;17.00;;;;;-145.10;100.00;63789.38;5078592;27;45467;-62
2024/01/18 05:21:30;;;;;;;;;16.25;14.75;;;;;-145.10;100.00;63789.38;5092765;27;45268;-62
2024/01/18 05:23:56;;;;;;;;;24.33;18.00;;;;;-145.10;100.00;63789.38;5064847;27;72883;-62
2024/01/18 05:26:21;;;;;;;;;31.67;27.00;;;;;-145.10;100.00;63789.38;5083244;27;75635;-62
2024/01/18 05:28:46;;;;;;;;;28.75;19.25;;;;;-145.10;100.00;63789.38;5052127;28;59082;-61
2024/01/18 05:31:12;;;;;;;;;23.50;20.75;;;;;-145.10;100.00;63789.38;5057353;28;45581;-62
2024/01/18 05:33:37;;;;;;;;;21.25;11.50;;;;;-145.10;100.00;63789.38;5096369;27;46382;-61
2024/01/18 05:36:03;;;;;;;;;29.25;20.25;;;;;-145.10;100.00;63789.38;5093731;27;46139;-61
2024/01/18 05:38:32;;;;;;;;;38.00;26.25;;;;;-145.10;100.00;63789.38;5085667;27;45528;-62
2024/01/18 05:40:58;;;;;;;;;33.25;24.50;;;;;-145.10;100.00;63789.38;5079370;27;45361;-61
2024/01/18 05:43:23;;;;;;;;;43.67;26.00;;;;;-145.10;100.00;63789.38;5073092;27;67553;-61
2024/01/18 05:45:48;;;;;;;;;19.33;17.67;;;;;-145.10;100.00;63789.38;5068047;27;69848;-61
2024/01/18 05:48:14;;;;;;;;;37.67;20.67;;;;;-145.10;100.00;63789.38;5070288;27;72155;-62
2024/01/18 05:50:39;;;;;;;;;38.00;28.00;;;;;-145.10;100.00;63789.38;5101657;27;68761;-62
2024/01/18 05:53:04;;;;;;;;;34.33;28.33;;;;;-145.10;100.00;63789.38;5094426;27;68971;-62
2024/01/18 05:55:30;;;;;;;;;44.33;35.00;;;;;-145.10;100.00;63789.38;5092102;27;67892;-62
2024/01/18 05:57:55;;;;;;;;;31.25;25.25;;;;;-145.10;100.00;63789.38;5078534;27;45276;-62
2024/01/18 06:00:20;;;;;;;;;42.33;31.33;;;;;-145.10;100.00;63789.38;5084020;27;60553;-62
2024/01/18 06:02:46;;;;;;;;;35.75;25.75;;;;;-145.10;100.00;63789.38;5084423;27;45891;-62
2024/01/18 06:05:11;;;;;;;;;37.33;28.00;;;;;-145.10;100.00;63789.38;5079216;27;74400;-62
2024/01/18 06:07:36;;;;;;;;;42.75;29.50;;;;;-145.10;100.00;63789.38;5070924;27;50766;-62
2024/01/18 06:10:03;;;;;;;;;31.00;23.00;;;;;-145.10;100.00;63789.38;5080985;27;69961;-62
2024/01/18 06:12:29;;;;;;;;;30.75;20.75;;;;;-145.10;100.00;63789.38;5068439;28;45594;-62
2024/01/18 06:14:54;;;;;;;;;45.00;31.67;;;;;-145.10;100.00;63789.38;5086574;27;70166;-62
2024/01/18 06:17:19;;;;;;;;;48.00;29.50;;;;;-145.10;100.00;63789.38;5089193;27;46123;-61
2024/01/18 06:19:44;;;;;;;;;29.00;21.00;;;;;-145.10;100.00;63789.38;5094444;27;67324;-62
2024/01/18 06:22:10;;;;;;;;;40.33;27.00;;;;;-145.10;100.00;63789.38;5059083;27;69670;-62
2024/01/18 06:24:36;;;;;;;;;36.75;26.00;;;;;-145.10;100.00;63789.38;5074941;27;46256;-62
2024/01/18 06:27:01;;;;;;;;;42.25;28.50;;;;;-145.10;100.00;63789.38;5054058;27;45299;-62
2024/01/18 06:29:29;;;;;;;;;31.75;24.50;;;;;-145.10;100.00;63789.38;5089694;27;45363;-64
2024/01/18 06:31:55;;;;;;;;;37.50;27.00;;;;;-145.10;100.00;63789.38;5074481;27;45511;-60
2024/01/18 06:34:20;;;;;;;;;38.00;28.25;;;;;-145.10;100.00;63789.38;5092373;27;45384;-60
2024/01/18 06:36:45;;;;;;;;;30.67;28.00;;;;;-145.10;100.00;63789.38;5072285;27;72774;-64
2024/01/18 06:39:11;;;;;;;;;45.67;25.67;;;;;-145.10;100.00;63789.38;5082737;27;68543;-64
2024/01/18 06:41:36;;;;;;;;;36.25;23.00;;;;;-145.10;100.00;63789.38;5078803;27;64682;-64
2024/01/18 06:44:02;;;;;;;;;36.50;25.00;;;;;-145.10;100.00;63789.38;5093347;27;46938;-65
2024/01/18 06:46:29;;;;;;;;;57.00;40.50;;;;;-145.10;100.00;63789.38;5073092;27;45375;-65
2024/01/18 06:48:55;;;;;;;;;47.00;30.75;;;;;-145.10;100.00;63789.38;5062245;27;45493;-70
2024/01/18 06:51:23;;;;;;;;;26.00;16.75;;;;;-145.10;100.00;63789.38;5101147;27;45529;-66
2024/01/18 06:53:48;;;;;;;;;38.00;23.00;;;;;-145.10;100.00;63789.38;5061754;27;47174;-70
2024/01/18 06:56:14;;;;;;;;;50.00;30.00;;;;;-145.10;100.00;63789.38;5101091;27;45822;-70
2024/01/18 06:58:39;;;;;;;;;46.75;32.00;;;;;-145.10;100.00;63789.38;5076164;27;51857;-70
2024/01/18 07:01:06;;;;;;;;;42.75;29.75;;;;;-145.10;100.00;63789.38;5063027;27;45613;-68
2024/01/18 07:03:31;;;;;;;;;66.75;37.75;;;;;-145.10;100.00;63789.38;5062799;27;47230;-71
2024/01/18 07:05:57;;;;;;;;;38.25;30.75;;;;;-145.10;100.00;63789.38;5086748;27;45428;-72
2024/01/18 07:08:25;;;;;;;;;34.75;32.00;;;;;-145.10;100.00;63789.38;5099329;27;45398;-68
2024/01/18 07:10:50;;;;;;;;;32.00;26.25;;;;;-145.10;100.00;63789.38;5081760;27;64121;-68
2024/01/18 07:13:16;;;;;;;;;42.00;30.25;;;;;-145.10;100.00;63789.38;5089187;27;46252;-68
2024/01/18 07:15:41;;;;;;;;;39.00;27.50;;;;;-145.10;100.00;63789.38;5099142;27;45426;-70
2024/01/18 07:18:06;;;;;;;;;37.25;33.00;;;;;-145.10;100.00;63789.38;5088470;27;45415;-65
2024/01/18 07:20:32;;;;;;;;;56.33;38.00;;;;;-145.10;100.00;63789.38;5097427;27;74539;-67
2024/01/18 07:22:57;;;;;;;;;43.00;25.75;;;;;-145.10;100.00;63789.38;5084766;27;46778;-64
2024/01/18 07:25:22;;;;;;;;;49.33;33.00;;;;;-145.10;100.00;63789.38;5090907;27;72032;-69
2024/01/18 07:27:48;;;;;;;;;37.50;30.75;;;;;-145.10;100.00;63789.38;5089020;27;45462;-71
2024/01/18 07:30:14;;;;;;;;;43.25;28.50;;;;;-145.10;100.00;63789.38;5101813;27;45478;-67
2024/01/18 07:32:40;;;;;;;;;54.00;34.50;;;;;-145.10;100.00;63789.38;5085203;27;46292;-66
2024/01/18 07:35:06;;;;;;;;;62.25;46.00;;;;;-145.10;100.00;63789.38;5089028;27;45786;-67
2024/01/18 07:37:32;;;;;;;;;55.50;41.75;;;;;-145.10;100.00;63789.38;5075994;27;45483;-67
2024/01/18 07:39:57;;;;;;;;;45.75;34.50;;;;;-145.10;100.00;63789.38;5086278;27;45248;-67
2024/01/18 07:42:22;;;;;;;;;41.00;35.50;;;;;-145.10;100.00;63789.38;5081669;27;65995;-68
2024/01/18 07:44:48;;;;;;;;;37.00;30.33;;;;;-145.10;100.00;63789.38;5091691;27;69801;-68
2024/01/18 07:47:13;;;;;;;;;57.75;41.50;;;;;-145.10;100.00;63789.38;5088475;27;67435;-67
2024/01/18 07:49:42;;;;;;;;;54.75;36.75;;;;;-145.10;100.00;63789.38;5099072;27;45423;-67
2024/01/18 07:52:08;;;;;;;;;52.75;37.50;;;;;-145.10;100.00;63789.38;5089286;27;45302;-65
2024/01/18 07:54:34;;;;;;;;;53.00;39.75;;;;;-145.10;100.00;63789.38;5087762;27;45361;-69
2024/01/18 07:56:59;;;;;;;;;36.00;25.50;;;;;-145.10;100.00;63789.38;5084121;27;48994;-69
2024/01/18 07:59:25;;;;;;;;;53.25;37.75;;;;;-145.10;100.00;63789.38;5092699;27;45582;-70
2024/01/18 08:01:50;;;;;;;;;56.75;42.50;;;;;-145.10;100.00;63789.38;5089986;27;45452;-69
2024/01/18 08:04:15;;;;;;;;;62.67;43.33;;;;;-145.10;100.00;63789.38;5090428;27;63339;-70
2024/01/18 08:06:42;;;;;;;;;45.67;37.33;;;;;-145.10;100.00;63789.38;5090882;27;67654;-70
2024/01/18 08:09:11;;;;;;;;;56.50;42.00;;;;;-145.10;100.00;63789.38;5064757;28;45435;-68
2024/01/18 08:11:37;;;;;;;;;53.75;41.75;;;;;-145.10;100.00;63789.38;5098320;27;46105;-68
2024/01/18 08:14:02;;;;;;;;;48.50;40.50;;;;;-145.10;100.00;63789.38;5082367;27;45288;-68
2024/01/18 08:16:28;;;;;;;;;61.75;40.50;;;;;-145.10;100.00;63789.38;5089784;27;45474;-69
2024/01/18 08:18:53;;;;;;;;;50.25;40.50;;;;;-145.10;100.00;63789.38;5086433;27;45438;-69
2024/01/18 08:21:18;;;;;;;;;55.25;39.25;;;;;-145.10;100.00;63789.38;5077373;27;60528;-70
2024/01/18 08:23:44;;;;;;;;;61.50;43.50;;;;;-145.10;100.00;63789.38;5092869;27;70477;-69
2024/01/18 08:26:10;;;;;;;;;53.75;37.50;;;;;-145.10;100.00;63789.38;5091981;27;52602;-69
2024/01/18 08:28:36;;;;;;;;;58.75;40.25;;;;;-145.10;100.00;63789.38;5090647;27;45454;-69
2024/01/18 08:31:01;;;;;;;;;57.75;39.25;;;;;-145.10;100.00;63789.38;5092556;27;47656;-69
2024/01/18 08:33:26;;;;;;;;;43.75;33.50;;;;;-145.10;100.00;63789.38;5080396;28;56848;-69
2024/01/18 08:35:52;;;;;;;;;41.67;36.33;;;;;-145.10;100.00;63789.38;5083907;27;66018;-69
2024/01/18 08:38:17;;;;;;;;;51.67;37.33;;;;;-145.10;100.00;63789.38;5090044;27;62130;-69
2024/01/18 08:40:42;;;;;;;;;49.00;41.25;;;;;-145.10;100.00;63789.38;5087266;27;60243;-69
2024/01/18 08:43:08;;;;;;;;;62.67;44.33;;;;;-145.10;100.00;63789.38;5092418;27;73524;-69
2024/01/18 08:45:33;;;;;;;;;59.00;41.33;;;;;-145.10;100.00;63789.38;5079370;28;68200;-69
2024/01/18 08:47:59;;;;;;;;;40.25;36.50;;;;;-145.10;100.00;63789.38;5080516;28;45210;-69
2024/01/18 08:50:24;;;;;;;;;51.50;40.00;;;;;-145.10;100.00;63789.38;5084309;27;45339;-69
2024/01/18 08:52:51;;;;;;;;;48.25;38.50;;;;;-145.10;100.00;63789.38;5101467;27;45414;-69
2024/01/18 08:55:17;;;;;;;;;50.50;40.75;;;;;-145.10;100.00;63789.38;5096058;27;45227;-70
2024/01/18 08:57:42;;;;;;;;;48.50;41.50;;;;;-145.10;100.00;63789.38;5090825;27;45261;-69
2024/01/18 09:00:08;;;;;;;;;61.50;44.25;;;;;-145.10;100.00;63789.38;5100494;27;45330;-69
2024/01/18 09:02:34;;;;;;;;;51.25;37.75;;;;;-145.10;100.00;63789.38;5096122;27;45255;-69
2024/01/18 09:04:59;;;;;;;;;48.50;41.00;;;;;-145.10;100.00;63789.38;5102478;27;45387;-69
2024/01/18 09:07:24;;;;;;;;;54.67;43.00;;;;;-145.10;100.00;63789.38;5088633;27;60825;-69
2024/01/18 09:09:50;;;;;;;;;57.00;39.33;;;;;-145.10;100.00;63789.38;5079620;27;74045;-69
2024/01/18 09:12:15;;;;;;;;;52.50;41.50;;;;;-145.10;100.00;63789.38;5091998;27;64610;-69
2024/01/18 09:14:41;;;;;;;;;49.75;40.75;;;;;-145.10;100.00;63789.38;5095307;27;45317;-69
2024/01/18 09:17:07;;;;;;;;;54.75;41.00;;;;;-145.10;100.00;63789.38;5076255;27;45427;-70
2024/01/18 09:19:32;;;;;;;;;53.33;39.00;;;;;-145.10;100.00;63789.38;5077033;27;63541;-67
2024/01/18 09:21:57;;;;;;;;;57.75;39.50;;;;;-145.10;100.00;63789.38;5093872;27;56942;-67
2024/01/18 09:24:23;;;;;;;;;37.67;37.33;;;;;-145.10;100.00;63789.38;5095504;27;68290;-66
2024/01/18 09:26:49;;;;;;;;;52.50;43.75;;;;;-145.10;100.00;63789.38;5092179;27;45264;-68
2024/01/18 09:29:14;;;;;;;;;52.75;41.25;;;;;-145.10;100.00;63789.38;5093909;27;46306;-68
2024/01/18 09:31:40;;;;;;;;;57.25;41.75;;;;;-145.10;100.00;63789.38;5093376;27;45426;-68
2024/01/18 09:34:05;;;;;;;;;60.25;44.25;;;;;-145.10;100.00;63789.38;5086238;27;45268;-68
2024/01/18 09:36:30;;;;;;;;;58.67;45.00;;;;;-145.10;100.00;63789.38;5086456;27;73274;-68
2024/01/18 09:38:58;;;;;;;;;75.50;54.25;;;;;-145.10;100.00;63789.38;5085940;27;46348;-68
2024/01/18 09:41:29;;;;;;;;;58.33;44.33;;;;;-145.10;100.00;63789.38;5097591;27;70414;-68
2024/01/18 09:44:00;;;;;;;;;61.25;43.75;;;;;-145.10;100.00;63789.38;5081563;27;45579;-68
2024/01/18 09:46:27;;;;;;;;;58.75;42.00;;;;;-145.10;100.00;63789.38;5089961;27;45445;-67
2024/01/18 09:48:52;;;;;;;;;63.75;45.25;;;;;-145.10;100.00;63789.38;5074538;27;46229;-68
2024/01/18 09:51:21;;;;;;;;;59.50;41.75;;;;;-145.10;100.00;63789.38;5071942;27;45344;-68
2024/01/18 09:53:49;;;;;;;;;50.25;41.50;;;;;-145.10;100.00;63789.38;5077043;28;45263;-68
2024/01/18 09:56:18;;;;;;;;;62.75;44.00;;;;;-145.10;100.00;63789.38;5090491;27;45395;-68
2024/01/18 09:58:43;;;;;;;;;62.00;41.75;;;;;-145.10;100.00;63789.38;5073948;27;45408;-68
2024/01/18 10:01:11;;;;;;;;;53.33;40.33;;;;;-145.10;100.00;63789.38;5072004;27;70971;-68
2024/01/18 10:03:36;;;;;;;;;55.25;40.75;;;;;-145.10;100.00;63789.38;5079139;27;56072;-68
2024/01/18 10:06:02;;;;;;;;;48.00;32.00;;;;;-145.10;100.00;63789.38;5094728;27;72968;-68
2024/01/18 10:08:28;;;;;;;;;55.75;43.25;;;;;-145.10;100.00;63789.38;5076169;27;46853;-69
2024/01/18 10:10:55;;;;;;;;;38.50;32.75;;;;;-145.10;100.00;63789.38;5091262;27;45308;-69
2024/01/18 10:13:20;;;;;;;;;40.75;38.00;;;;;-145.10;100.00;63789.38;5085989;27;45296;-69
2024/01/18 10:15:45;;;;;;;;;54.75;42.50;;;;;-145.10;100.00;63789.38;5068037;28;45361;-69
2024/01/18 10:18:11;;;;;;;;;54.00;40.67;;;;;-145.10;100.00;63789.38;5107098;27;74371;-69
2024/01/18 10:20:36;;;;;;;;;52.67;40.33;;;;;-145.10;100.00;63789.38;5086739;27;72432;-69
2024/01/18 10:23:02;;;;;;;;;57.75;42.25;;;;;-145.10;100.00;63789.38;5085093;27;45350;-69
2024/01/18 10:25:30;;;;;;;;;61.25;42.75;;;;;-145.10;100.00;63789.38;5096807;27;45285;-68
2024/01/18 10:27:56;;;;;;;;;54.75;43.00;;;;;-145.10;100.00;63789.38;5082763;27;46187;-69
2024/01/18 10:30:22;;;;;;;;;42.25;39.75;;;;;-145.10;100.00;63789.38;5079258;27;45525;-68
2024/01/18 10:32:48;;;;;;;;;51.00;41.00;;;;;-145.10;100.00;63789.38;5093716;27;45147;-69
2024/01/18 10:35:25;;;;;;;;;44.75;37.25;;;;;-145.10;100.00;63789.38;5092762;27;45410;-69
2024/01/18 10:38:03;;;;;;;;;55.00;40.25;;;;;-145.10;100.00;63789.38;5077288;27;46255;-68
2024/01/18 10:40:31;;;;;;;;;54.00;39.75;;;;;-145.10;100.00;63789.38;5094747;27;45323;-69
2024/01/18 10:42:56;;;;;;;;;56.75;38.75;;;;;-145.10;100.00;63789.38;5089008;27;45230;-70
2024/01/18 10:45:22;;;;;;;;;46.75;34.50;;;;;-145.10;100.00;63789.38;5077859;27;45374;-69
2024/01/18 10:47:47;;;;;;;;;48.67;35.33;;;;;-145.10;100.00;63789.38;5095882;27;74572;-69
2024/01/18 10:50:12;;;;;;;;;46.75;41.50;;;;;-145.10;100.00;63789.38;5102721;27;45178;-68
2024/01/18 10:52:39;;;;;;;;;52.75;40.25;;;;;-145.10;100.00;63789.38;5078464;27;62899;-69
2024/01/18 10:55:08;;;;;;;;;48.25;39.25;;;;;-145.10;100.00;63789.38;5094875;27;73904;-68
2024/01/18 10:57:34;;;;;;;;;52.50;36.75;;;;;-145.10;100.00;63789.38;5080679;27;47096;-68
2024/01/18 10:59:59;;;;;;;;;53.25;38.50;;;;;-145.10;100.00;63789.38;5056449;27;45323;-68
2024/01/18 11:02:25;;;;;;;;;61.25;47.75;;;;;-145.10;100.00;63789.38;5067856;27;45280;-68
2024/01/18 11:04:52;;;;;;;;;57.75;40.50;;;;;-145.10;100.00;63789.38;5091324;27;45410;-69
2024/01/18 11:07:18;;;;;;;;;54.00;39.00;;;;;-145.10;100.00;63789.38;5095623;27;47171;-69
2024/01/18 11:09:44;;;;;;;;;40.50;39.00;;;;;-145.10;100.00;63789.38;5074193;28;45303;-69
2024/01/18 11:12:11;;;;;;;;;54.75;39.50;;;;;-145.10;100.00;63789.38;5086613;27;63820;-68
2024/01/18 11:14:36;;;;;;;;;47.75;34.50;;;;;-145.10;100.00;63789.38;5101445;27;45379;-68
2024/01/18 11:17:15;;;;;;;;;41.75;27.00;;;;;-145.10;100.00;63789.38;5094481;27;75656;-69
2024/01/18 11:19:43;;;;;;;;;45.00;34.25;;;;;-145.10;100.00;63789.38;5099944;27;45233;-68
2024/01/18 11:22:22;;;;;;;;;49.00;39.00;;;;;-145.10;100.00;63789.38;5086368;27;45240;-68
2024/01/18 11:24:48;;;;;;;;;44.75;35.00;;;;;-145.10;100.00;63789.38;5072442;27;45518;-68
2024/01/18 11:27:21;;;;;;;;;32.25;25.50;;;;;-145.10;100.00;63789.38;5083005;27;73587;-67
2024/01/18 11:29:47;;;;;;;;;45.50;38.50;;;;;-145.10;100.00;63789.38;5083582;27;45800;-69
2024/01/18 11:32:14;;;;;;;;;40.25;34.75;;;;;-145.10;100.00;63789.38;5088914;27;45353;-69
2024/01/18 11:34:40;;;;;;;;;40.50;37.25;;;;;-145.10;100.00;63789.38;5095119;27;45557;-69
2024/01/18 11:37:16;;;;;;;;;43.25;36.75;;;;;-145.10;100.00;63789.38;5071620;28;46384;-67
2024/01/18 11:39:47;;;;;;;;;48.25;39.00;;;;;-145.10;100.00;63789.38;5081108;27;46091;-68
2024/01/18 11:42:17;;;;;;;;;52.25;39.25;;;;;-145.10;100.00;63789.38;5085865;27;45309;-68
2024/01/18 11:45:15;;;;;;;;;49.25;39.50;;;;;-145.10;100.00;63789.38;5101400;27;45412;-67
2024/01/18 11:47:41;;;;;;;;;59.00;42.00;;;;;-145.10;100.00;63789.38;5093544;27;46126;-67
2024/01/18 11:50:08;;;;;;;;;55.75;36.75;;;;;-145.10;100.00;63789.38;5075842;27;45510;-68
2024/01/18 11:52:39;;;;;;;;;35.75;26.25;;;;;-145.10;100.00;63789.38;5107917;27;45352;-69
2024/01/18 11:55:05;;;;;;;;;44.75;34.00;;;;;-145.10;100.00;63789.38;5094011;27;45566;-68
2024/01/18 11:57:32;;;;;;;;;46.00;38.00;;;;;-145.10;100.00;63789.38;5082207;27;46284;-67
2024/01/18 11:59:58;;;;;;;;;53.75;39.00;;;;;-145.10;100.00;63789.38;5077072;27;45733;-67
2024/01/18 12:02:24;;;;;;;;;49.50;36.50;;;;;-145.10;100.00;63789.38;5064157;28;45454;-66
2024/01/18 12:04:50;;;;;;;;;29.25;26.00;;;;;-145.10;100.00;63789.38;5084004;27;45521;-69
2024/01/18 12:07:16;;;;;;;;;63.00;43.75;;;;;-145.10;100.00;63789.38;5082845;27;45428;-67
2024/01/18 12:09:42;;;;;;;;;45.00;39.00;;;;;-145.10;100.00;63789.38;5081616;27;45291;-69
2024/01/18 12:12:07;;;;;;;;;56.25;41.25;;;;;-145.10;100.00;63789.38;5093503;27;45458;-69
2024/01/18 12:14:33;;;;;;;;;77.00;56.25;;;;;-145.10;100.00;63789.38;5094926;27;48265;-69
2024/01/18 12:17:00;;;;;;;;;47.50;38.50;;;;;-145.10;100.00;63789.38;5081731;27;46145;-69
2024/01/18 12:19:36;;;;;;;;;64.00;43.25;;;;;-145.10;100.00;63789.38;5099412;27;45853;-69
2024/01/18 12:22:02;;;;;;;;;55.50;43.00;;;;;-145.10;100.00;63789.38;5086753;27;45448;-68
2024/01/18 12:24:28;;;;;;;;;57.00;41.00;;;;;-145.10;100.00;63789.38;5085737;27;45330;-68
2024/01/18 12:26:54;;;;;;;;;63.50;46.50;;;;;-145.10;100.00;63789.38;5101189;27;45363;-68
2024/01/18 12:29:20;;;;;;;;;57.00;38.25;;;;;-145.10;100.00;63789.38;5065136;27;61004;-68
2024/01/18 12:31:46;;;;;;;;;61.75;42.25;;;;;-145.10;100.00;63789.38;5083224;27;45301;-68
2024/01/18 12:34:12;;;;;;;;;60.25;43.00;;;;;-145.10;100.00;63789.38;5086809;27;45446;-69
2024/01/18 12:36:38;;;;;;;;;51.75;42.00;;;;;-145.10;100.00;63789.38;5100827;27;46117;-68
2024/01/18 12:39:03;;;;;;;;;62.00;43.50;;;;;-145.10;100.00;63789.38;5082292;27;45330;-68
2024/01/18 12:41:28;;;;;;;;;59.00;46.75;;;;;-145.10;100.00;63789.38;5082872;27;45787;-69